Disclaimer

Please do not use the information listed here in-flight or in-navigation, as they are not provided to us by the airports but are provided by volunteers, so they might be outdated.

Search


Regions


Airport information page

Radio informations:
Aerodrome flight information system (AFIS) - 119.2 MHz

Airport informations:
Latitude: 12° 48' 17.00" S
Longitude: 045° 16' 52.01" E
Elevation: 23 feet - 7 meters
Operating hours: Remarks
Operating agency: Civil government, landing fees and diplomatic clearance may be required
Timezone: UTC+3
Fuel: 100/130 octane gasoline, leaded, MIL-L-5572F (GREEN)

Runway information:
16/34 - 6330 x 92 feet< - >1929 x 28 meters

Recent METARs:
FMCZ 130330Z AUTO 21011KT 9999 SCT023 27/22 Q1013 NOSIG
FMCZ 130400Z AUTO 20012KT 9999 BKN022 BKN028 BKN034 27/22 Q1013 NOSIG
FMCZ 130430Z AUTO 20012KT 9999 FEW022 BKN036 27/22 Q1013 NOSIG

Airport on the map: